Time;durP1;ratioP1;P1;durP2;ratioP2;P2;SDS_P1;SDS_P2;PMS_P1;PMS_P2;Temp;Humidity;BMP_temperature;BMP_pressure;BME280_temperature;BME280_humidity;BME280_pressure;Samples;Min_cycle;Max_cycle;Signal;HPM_P1;HPM_P2
2022/09/09 00:00:29;;;;;;;;;;;20.80;47.40;;;;;;452651;263;1913;-51
2022/09/09 00:02:31;;;;;;;;;;;20.80;47.50;;;;;;452897;263;1320;-51
2022/09/09 00:04:32;;;;;;;;;;;20.80;47.40;;;;;;453072;263;1267;-52
2022/09/09 00:06:35;;;;;;;;;;;20.80;47.50;;;;;;452681;263;1338;-51
2022/09/09 00:08:35;;;;;;;;;;;20.90;47.50;;;;;;452984;263;2220;-51
2022/09/09 00:10:36;;;;;;;;;;;20.80;47.50;;;;;;453085;263;1299;-51
2022/09/09 00:12:37;;;;;;;;;;;20.80;47.40;;;;;;453100;263;2270;-52
2022/09/09 00:14:39;;;;;;;;;;;20.80;47.50;;;;;;453010;263;1319;-52
2022/09/09 00:16:40;;;;;;;;;;;20.80;47.50;;;;;;452695;263;1424;-51
2022/09/09 00:18:41;;;;;;;;;;;20.80;47.50;;;;;;453102;263;1307;-52
2022/09/09 00:20:43;;;;;;;;;;;20.90;47.60;;;;;;453060;263;1474;-51
2022/09/09 00:22:45;;;;;;;;;;;20.80;47.50;;;;;;453067;263;1256;-51
2022/09/09 00:24:45;;;;;;;;;;;20.80;47.50;;;;;;453089;262;2413;-52
2022/09/09 00:26:47;;;;;;;;;;;20.80;47.60;;;;;;453104;263;1269;-51
2022/09/09 00:28:48;;;;;;;;;;;20.80;47.60;;;;;;452706;263;1377;-51
2022/09/09 00:30:49;;;;;;;;;;;20.80;47.60;;;;;;452613;263;1362;-51
2022/09/09 00:32:51;;;;;;;;;;;20.80;47.60;;;;;;452730;262;2213;-51
2022/09/09 00:34:52;;;;;;;;;;;20.80;47.60;;;;;;453092;263;1465;-52
2022/09/09 00:36:53;;;;;;;;;;;20.80;47.60;;;;;;452658;263;1252;-51
2022/09/09 00:38:54;;;;;;;;;;;20.80;47.60;;;;;;452679;263;1235;-51
2022/09/09 00:40:56;;;;;;;;;;;20.80;47.60;;;;;;452896;263;1277;-51
2022/09/09 00:42:58;;;;;;;;;;;20.80;47.60;;;;;;453036;263;1279;-52
2022/09/09 00:44:58;;;;;;;;;;;20.80;47.60;;;;;;453018;263;2353;-51
2022/09/09 00:47:00;;;;;;;;;;;20.90;47.70;;;;;;452644;263;1793;-51
2022/09/09 00:49:01;;;;;;;;;;;20.80;47.60;;;;;;453081;263;1489;-51
2022/09/09 00:51:03;;;;;;;;;;;20.80;47.60;;;;;;453130;262;1146;-51
2022/09/09 00:53:04;;;;;;;;;;;20.80;47.60;;;;;;452712;263;2259;-51
2022/09/09 00:55:05;;;;;;;;;;;20.80;47.60;;;;;;453039;263;1418;-52
2022/09/09 00:57:06;;;;;;;;;;;20.80;47.70;;;;;;453040;263;1114;-51
2022/09/09 00:59:08;;;;;;;;;;;20.80;47.70;;;;;;452711;263;1209;-51
2022/09/09 01:01:09;;;;;;;;;;;20.80;47.70;;;;;;452760;263;1218;-51
2022/09/09 01:03:10;;;;;;;;;;;20.80;47.70;;;;;;453055;263;1319;-52
2022/09/09 01:05:12;;;;;;;;;;;20.80;47.70;;;;;;452990;263;1225;-51
2022/09/09 01:07:13;;;;;;;;;;;20.80;47.70;;;;;;453061;263;1293;-51
2022/09/09 01:09:15;;;;;;;;;;;20.80;47.70;;;;;;452845;263;1255;-51
2022/09/09 01:11:16;;;;;;;;;;;20.80;47.70;;;;;;452649;263;2351;-51
2022/09/09 01:13:17;;;;;;;;;;;20.80;47.80;;;;;;453062;263;1263;-51
2022/09/09 01:15:18;;;;;;;;;;;20.80;47.80;;;;;;453023;263;1401;-51
2022/09/09 01:17:20;;;;;;;;;;;20.80;47.70;;;;;;453040;263;1343;-51
2022/09/09 01:19:21;;;;;;;;;;;20.80;47.80;;;;;;452783;263;1290;-52
2022/09/09 01:21:22;;;;;;;;;;;20.80;47.80;;;;;;453003;263;1421;-51
2022/09/09 01:23:24;;;;;;;;;;;20.80;47.80;;;;;;452664;262;1270;-52
2022/09/09 01:25:25;;;;;;;;;;;20.80;47.80;;;;;;453042;263;2267;-51
2022/09/09 01:27:27;;;;;;;;;;;20.80;47.80;;;;;;452888;263;1261;-51
2022/09/09 01:29:28;;;;;;;;;;;20.80;47.80;;;;;;453098;263;1295;-51
2022/09/09 01:31:29;;;;;;;;;;;20.80;47.90;;;;;;452853;263;2193;-52
2022/09/09 01:33:30;;;;;;;;;;;20.80;47.80;;;;;;453104;263;1270;-51
2022/09/09 01:35:32;;;;;;;;;;;20.80;47.90;;;;;;453108;263;1267;-51
2022/09/09 01:37:33;;;;;;;;;;;20.80;47.90;;;;;;453027;263;1398;-52
2022/09/09 01:39:34;;;;;;;;;;;20.80;47.90;;;;;;453073;263;1323;-51
2022/09/09 01:41:36;;;;;;;;;;;20.80;47.80;;;;;;452717;263;1246;-51
2022/09/09 01:43:37;;;;;;;;;;;20.80;47.80;;;;;;453012;263;1236;-51
2022/09/09 01:45:38;;;;;;;;;;;20.80;47.90;;;;;;452701;263;1298;-51
2022/09/09 01:47:40;;;;;;;;;;;20.80;47.90;;;;;;453065;263;1136;-51
2022/09/09 01:49:41;;;;;;;;;;;20.90;47.90;;;;;;453062;263;1301;-51
2022/09/09 01:51:43;;;;;;;;;;;20.80;47.90;;;;;;453086;263;2178;-51
2022/09/09 01:53:44;;;;;;;;;;;20.80;47.90;;;;;;453106;263;1257;-52
2022/09/09 01:55:45;;;;;;;;;;;20.80;47.90;;;;;;453053;262;1252;-51
2022/09/09 01:57:47;;;;;;;;;;;20.80;48.00;;;;;;453097;263;1214;-52
2022/09/09 01:59:48;;;;;;;;;;;20.80;47.90;;;;;;452817;263;1247;-51
2022/09/09 02:01:49;;;;;;;;;;;20.80;48.00;;;;;;452916;263;1273;-52
2022/09/09 02:03:50;;;;;;;;;;;20.80;48.00;;;;;;452699;263;1268;-51
2022/09/09 02:05:52;;;;;;;;;;;20.80;48.00;;;;;;453083;263;1262;-51
2022/09/09 02:07:53;;;;;;;;;;;20.80;48.00;;;;;;453082;263;1382;-51
2022/09/09 02:09:54;;;;;;;;;;;20.80;47.90;;;;;;453062;263;1380;-51
2022/09/09 02:11:56;;;;;;;;;;;20.80;48.00;;;;;;453065;263;2185;-52
2022/09/09 02:13:58;;;;;;;;;;;20.80;48.00;;;;;;453051;263;1287;-51
2022/09/09 02:16:00;;;;;;;;;;;20.80;48.00;;;;;;453073;263;1283;-51
2022/09/09 02:18:01;;;;;;;;;;;20.80;48.10;;;;;;452653;263;2101;-51
2022/09/09 02:20:02;;;;;;;;;;;20.80;48.10;;;;;;452872;263;1474;-51
2022/09/09 02:22:03;;;;;;;;;;;20.80;48.10;;;;;;452694;263;1211;-51
2022/09/09 02:24:05;;;;;;;;;;;20.80;48.10;;;;;;452923;263;1279;-51
2022/09/09 02:26:07;;;;;;;;;;;20.80;48.10;;;;;;452937;263;1590;-51
2022/09/09 02:28:07;;;;;;;;;;;20.80;48.10;;;;;;453023;262;2191;-51
2022/09/09 02:30:09;;;;;;;;;;;20.80;48.10;;;;;;453060;263;1392;-51
2022/09/09 02:32:10;;;;;;;;;;;20.80;48.10;;;;;;452888;263;2185;-51
2022/09/09 02:34:11;;;;;;;;;;;20.80;48.10;;;;;;453094;262;1298;-52
2022/09/09 02:36:13;;;;;;;;;;;20.80;48.10;;;;;;452618;263;1199;-52
2022/09/09 02:38:14;;;;;;;;;;;20.80;48.10;;;;;;452893;263;1282;-51
2022/09/09 02:40:16;;;;;;;;;;;20.80;48.20;;;;;;453047;263;1375;-51
2022/09/09 02:42:17;;;;;;;;;;;20.80;48.20;;;;;;452716;263;1342;-51
2022/09/09 02:44:19;;;;;;;;;;;20.80;48.20;;;;;;453011;263;1399;-51
2022/09/09 02:46:20;;;;;;;;;;;20.80;48.20;;;;;;453076;263;1356;-51
2022/09/09 02:48:22;;;;;;;;;;;20.80;48.20;;;;;;452666;263;2100;-52
2022/09/09 02:50:22;;;;;;;;;;;20.80;48.20;;;;;;453062;262;2313;-52
2022/09/09 02:52:25;;;;;;;;;;;20.80;48.20;;;;;;453080;263;2212;-51
2022/09/09 02:54:25;;;;;;;;;;;20.80;48.20;;;;;;452516;263;1432;-51
2022/09/09 02:56:28;;;;;;;;;;;20.80;48.20;;;;;;453082;263;1268;-52
2022/09/09 02:58:28;;;;;;;;;;;20.80;48.20;;;;;;452984;263;1917;-51
2022/09/09 03:00:29;;;;;;;;;;;20.80;48.20;;;;;;452728;262;1280;-51
2022/09/09 03:02:31;;;;;;;;;;;20.80;48.20;;;;;;452666;263;1346;-52
2022/09/09 03:04:32;;;;;;;;;;;20.80;48.20;;;;;;453067;263;1421;-52
2022/09/09 03:06:33;;;;;;;;;;;20.80;48.20;;;;;;452732;263;1282;-51
2022/09/09 03:08:35;;;;;;;;;;;20.80;48.20;;;;;;452816;263;1284;-51
2022/09/09 03:10:36;;;;;;;;;;;20.80;48.20;;;;;;452677;262;2407;-52
2022/09/09 03:12:38;;;;;;;;;;;20.80;48.30;;;;;;452944;263;2177;-51
2022/09/09 03:14:38;;;;;;;;;;;20.80;48.30;;;;;;452580;263;2675;-51
2022/09/09 03:16:40;;;;;;;;;;;20.80;48.30;;;;;;453035;263;1366;-52
2022/09/09 03:18:42;;;;;;;;;;;20.80;48.30;;;;;;452768;263;1418;-52
2022/09/09 03:20:42;;;;;;;;;;;20.80;48.30;;;;;;452641;263;1981;-52
2022/09/09 03:22:44;;;;;;;;;;;20.80;48.20;;;;;;452696;263;1355;-51
2022/09/09 03:24:46;;;;;;;;;;;20.80;48.30;;;;;;453062;263;1217;-52
2022/09/09 03:26:47;;;;;;;;;;;20.80;48.30;;;;;;452921;263;1315;-51
2022/09/09 03:28:49;;;;;;;;;;;20.70;48.30;;;;;;453066;263;1283;-52
2022/09/09 03:30:50;;;;;;;;;;;20.80;48.40;;;;;;452554;263;2395;-52
2022/09/09 03:32:51;;;;;;;;;;;20.80;48.30;;;;;;452635;263;2202;-51
2022/09/09 03:34:52;;;;;;;;;;;20.70;48.30;;;;;;452657;263;1371;-51
2022/09/09 03:36:54;;;;;;;;;;;20.70;48.40;;;;;;452843;262;1358;-52
2022/09/09 03:38:55;;;;;;;;;;;20.80;48.40;;;;;;452881;263;1312;-51
2022/09/09 03:40:57;;;;;;;;;;;20.80;48.40;;;;;;453117;262;1325;-51
2022/09/09 03:42:58;;;;;;;;;;;20.80;48.40;;;;;;453064;263;1373;-52
2022/09/09 03:44:59;;;;;;;;;;;20.70;48.40;;;;;;452764;263;1408;-51
2022/09/09 03:47:01;;;;;;;;;;;20.80;48.40;;;;;;452957;263;1522;-51
2022/09/09 03:49:02;;;;;;;;;;;20.80;48.40;;;;;;452664;263;1245;-52
2022/09/09 03:51:03;;;;;;;;;;;20.80;48.40;;;;;;453069;263;1388;-52
2022/09/09 03:53:05;;;;;;;;;;;20.80;48.40;;;;;;453019;263;2154;-51
2022/09/09 03:55:06;;;;;;;;;;;20.80;48.40;;;;;;453027;263;1432;-52
2022/09/09 03:57:07;;;;;;;;;;;20.80;48.40;;;;;;453091;263;1378;-51
2022/09/09 03:59:09;;;;;;;;;;;20.80;48.40;;;;;;453088;263;1211;-51
2022/09/09 04:01:10;;;;;;;;;;;20.80;48.40;;;;;;453100;263;1269;-51
2022/09/09 04:03:11;;;;;;;;;;;20.80;48.40;;;;;;453005;263;1245;-52
2022/09/09 04:05:14;;;;;;;;;;;20.80;48.40;;;;;;452711;263;1830;-51
2022/09/09 04:07:14;;;;;;;;;;;20.80;48.40;;;;;;452973;262;1979;-51
2022/09/09 04:09:15;;;;;;;;;;;20.80;48.40;;;;;;452973;263;1293;-52
2022/09/09 04:11:17;;;;;;;;;;;20.80;48.50;;;;;;453013;262;1380;-52
2022/09/09 04:13:19;;;;;;;;;;;20.70;48.40;;;;;;453002;263;2177;-51
2022/09/09 04:15:19;;;;;;;;;;;20.80;48.50;;;;;;452631;263;2815;-51
2022/09/09 04:17:21;;;;;;;;;;;20.80;48.50;;;;;;453091;263;1381;-51
2022/09/09 04:19:22;;;;;;;;;;;20.80;48.50;;;;;;452814;263;1360;-51
2022/09/09 04:21:23;;;;;;;;;;;20.80;48.40;;;;;;453102;263;1151;-51
2022/09/09 04:23:25;;;;;;;;;;;20.80;48.40;;;;;;452728;262;1236;-51
2022/09/09 04:25:26;;;;;;;;;;;20.80;48.50;;;;;;452993;262;1074;-51
2022/09/09 04:27:27;;;;;;;;;;;20.80;48.40;;;;;;452642;263;1508;-51
2022/09/09 04:29:29;;;;;;;;;;;20.80;48.50;;;;;;452777;262;1263;-52
2022/09/09 04:31:30;;;;;;;;;;;20.80;48.50;;;;;;452693;262;1251;-50
2022/09/09 04:33:31;;;;;;;;;;;20.80;48.40;;;;;;452848;263;2174;-51
2022/09/09 04:35:33;;;;;;;;;;;20.80;48.50;;;;;;452174;263;1426;-52
2022/09/09 04:37:34;;;;;;;;;;;20.80;48.50;;;;;;452730;263;1571;-51
2022/09/09 04:39:36;;;;;;;;;;;20.80;48.50;;;;;;452677;262;1218;-51
2022/09/09 04:41:37;;;;;;;;;;;20.80;48.40;;;;;;453041;263;1252;-52
2022/09/09 04:43:38;;;;;;;;;;;20.80;48.50;;;;;;452971;263;2122;-51
2022/09/09 04:45:40;;;;;;;;;;;20.80;48.50;;;;;;452882;263;1220;-51
2022/09/09 04:47:42;;;;;;;;;;;20.70;48.50;;;;;;452780;263;1590;-51
2022/09/09 04:49:43;;;;;;;;;;;20.80;48.60;;;;;;452812;263;1741;-51
2022/09/09 04:51:44;;;;;;;;;;;20.70;48.50;;;;;;453023;263;1220;-51
2022/09/09 04:53:46;;;;;;;;;;;20.70;48.50;;;;;;452718;263;2201;-51
2022/09/09 04:55:47;;;;;;;;;;;20.80;48.60;;;;;;452467;263;2309;-51
2022/09/09 04:57:48;;;;;;;;;;;20.70;48.50;;;;;;452744;263;1570;-51
2022/09/09 04:59:49;;;;;;;;;;;20.80;48.60;;;;;;452637;263;1532;-51
2022/09/09 05:01:51;;;;;;;;;;;20.80;48.50;;;;;;452620;262;1318;-51
2022/09/09 05:03:53;;;;;;;;;;;20.80;48.50;;;;;;452648;263;1241;-52
2022/09/09 05:05:53;;;;;;;;;;;20.80;48.60;;;;;;453018;263;1987;-52
2022/09/09 05:07:55;;;;;;;;;;;20.80;48.60;;;;;;452646;263;1252;-51
2022/09/09 05:09:56;;;;;;;;;;;20.80;48.60;;;;;;452670;263;1329;-52
2022/09/09 05:11:58;;;;;;;;;;;20.80;48.60;;;;;;452635;263;1350;-52
2022/09/09 05:13:59;;;;;;;;;;;20.80;48.60;;;;;;453025;263;2205;-52
2022/09/09 05:16:00;;;;;;;;;;;20.70;48.60;;;;;;452725;263;1269;-51
2022/09/09 05:18:02;;;;;;;;;;;20.80;48.60;;;;;;452629;262;1233;-52
2022/09/09 05:20:03;;;;;;;;;;;20.80;48.60;;;;;;452586;263;1186;-52
2022/09/09 05:22:05;;;;;;;;;;;20.80;48.60;;;;;;452624;263;1291;-52
2022/09/09 05:24:06;;;;;;;;;;;20.70;48.70;;;;;;452958;263;1272;-51
2022/09/09 05:26:07;;;;;;;;;;;20.70;48.70;;;;;;452223;263;1258;-51
2022/09/09 05:28:09;;;;;;;;;;;20.80;48.70;;;;;;452994;263;1352;-50
2022/09/09 05:30:10;;;;;;;;;;;20.80;48.70;;;;;;452698;263;1257;-51
2022/09/09 05:32:13;;;;;;;;;;;20.80;48.70;;;;;;452748;263;1419;-51
2022/09/09 05:34:13;;;;;;;;;;;20.80;48.50;;;;;;452747;263;2330;-51
2022/09/09 05:36:14;;;;;;;;;;;20.80;48.40;;;;;;452647;263;1300;-51
2022/09/09 05:38:15;;;;;;;;;;;20.80;48.20;;;;;;452659;263;1396;-51
2022/09/09 05:40:17;;;;;;;;;;;20.80;48.20;;;;;;452709;263;1268;-51
2022/09/09 05:42:18;;;;;;;;;;;20.80;48.10;;;;;;452643;263;1202;-52
2022/09/09 05:44:19;;;;;;;;;;;20.80;48.00;;;;;;452867;263;1302;-51
2022/09/09 05:46:21;;;;;;;;;;;20.80;47.90;;;;;;452873;263;1230;-52
2022/09/09 05:48:22;;;;;;;;;;;20.80;47.70;;;;;;452998;263;1253;-52
2022/09/09 05:50:24;;;;;;;;;;;20.80;47.70;;;;;;452837;263;1190;-52
2022/09/09 05:52:27;;;;;;;;;;;20.90;47.70;;;;;;453058;263;1050;-51
2022/09/09 05:54:27;;;;;;;;;;;20.80;47.60;;;;;;452516;262;2520;-51
2022/09/09 05:56:28;;;;;;;;;;;20.90;47.60;;;;;;452371;263;1242;-51
2022/09/09 05:58:29;;;;;;;;;;;20.90;47.50;;;;;;452603;263;1141;-51
2022/09/09 06:00:31;;;;;;;;;;;20.90;47.40;;;;;;452610;263;1085;-52
2022/09/09 06:02:32;;;;;;;;;;;20.90;47.20;;;;;;452781;263;1935;-51
2022/09/09 06:04:33;;;;;;;;;;;20.90;47.30;;;;;;452948;263;1170;-51
2022/09/09 06:06:36;;;;;;;;;;;20.90;47.30;;;;;;452671;262;1282;-52
2022/09/09 06:08:38;;;;;;;;;;;20.90;47.30;;;;;;452988;263;1606;-51
2022/09/09 06:10:38;;;;;;;;;;;20.80;47.20;;;;;;452571;263;2369;-51
2022/09/09 06:12:40;;;;;;;;;;;20.90;47.20;;;;;;453047;262;1231;-51
2022/09/09 06:14:41;;;;;;;;;;;20.90;47.20;;;;;;453038;263;2177;-52
2022/09/09 06:16:43;;;;;;;;;;;20.80;47.20;;;;;;452659;263;1267;-51
2022/09/09 06:18:44;;;;;;;;;;;20.90;47.10;;;;;;452978;263;1452;-51
2022/09/09 06:20:45;;;;;;;;;;;20.90;47.10;;;;;;452823;263;1354;-51
2022/09/09 06:22:48;;;;;;;;;;;20.80;47.10;;;;;;452967;263;1276;-52
2022/09/09 06:24:48;;;;;;;;;;;20.90;47.10;;;;;;452846;263;2476;-52
2022/09/09 06:26:49;;;;;;;;;;;20.90;47.10;;;;;;452641;263;1225;-51
2022/09/09 06:28:52;;;;;;;;;;;20.90;47.00;;;;;;452760;263;1301;-51
2022/09/09 06:30:55;;;;;;;;;;;20.90;47.00;;;;;;452241;263;2483;-51
2022/09/09 06:32:53;;;;;;;;;;;20.90;47.00;;;;;;452427;263;1764;-52
2022/09/09 06:34:54;;;;;;;;;;;20.90;47.00;;;;;;452554;263;2228;-52
2022/09/09 06:36:57;;;;;;;;;;;20.90;47.00;;;;;;452524;263;1247;-51
2022/09/09 06:38:57;;;;;;;;;;;20.90;47.10;;;;;;452271;263;2049;-52
2022/09/09 06:40:59;;;;;;;;;;;20.90;47.00;;;;;;452650;263;1259;-51
2022/09/09 06:43:00;;;;;;;;;;;20.90;47.00;;;;;;452947;263;1214;-52
2022/09/09 06:45:01;;;;;;;;;;;20.90;46.90;;;;;;452656;263;1269;-51
2022/09/09 06:47:03;;;;;;;;;;;20.90;46.90;;;;;;452508;263;1278;-51
2022/09/09 06:49:04;;;;;;;;;;;20.90;46.90;;;;;;452572;263;1244;-51
2022/09/09 06:51:06;;;;;;;;;;;20.90;46.90;;;;;;452370;263;1257;-51
2022/09/09 06:53:07;;;;;;;;;;;20.90;46.90;;;;;;452176;263;1176;-52
2022/09/09 06:55:09;;;;;;;;;;;20.90;46.90;;;;;;452195;263;2186;-52
2022/09/09 06:57:10;;;;;;;;;;;20.90;46.90;;;;;;452444;263;1354;-52
2022/09/09 06:59:11;;;;;;;;;;;20.90;46.80;;;;;;452223;263;1331;-51
2022/09/09 07:01:12;;;;;;;;;;;20.90;46.80;;;;;;452002;263;1395;-51
2022/09/09 07:03:14;;;;;;;;;;;20.90;46.70;;;;;;452318;262;1232;-52
2022/09/09 07:05:15;;;;;;;;;;;20.90;46.80;;;;;;452422;262;1235;-52
2022/09/09 07:07:17;;;;;;;;;;;20.90;46.80;;;;;;452406;262;1223;-51
2022/09/09 07:09:18;;;;;;;;;;;20.90;46.90;;;;;;451939;263;1204;-51
2022/09/09 07:11:19;;;;;;;;;;;20.90;47.00;;;;;;452719;263;1357;-51
2022/09/09 07:13:24;;;;;;;;;;;20.90;47.10;;;;;;452302;263;2162;-51
2022/09/09 07:15:23;;;;;;;;;;;20.90;47.00;;;;;;452405;263;2298;-52
2022/09/09 07:17:24;;;;;;;;;;;20.90;47.00;;;;;;452445;263;1527;-51
2022/09/09 07:19:25;;;;;;;;;;;20.80;46.90;;;;;;452523;263;1219;-52
2022/09/09 07:21:26;;;;;;;;;;;20.80;47.00;;;;;;452251;263;1238;-51
2022/09/09 07:23:28;;;;;;;;;;;20.90;47.00;;;;;;452184;263;1307;-51
2022/09/09 07:25:30;;;;;;;;;;;20.90;46.90;;;;;;452629;263;1473;-51
2022/09/09 07:27:31;;;;;;;;;;;20.80;46.90;;;;;;452153;263;1348;-51
2022/09/09 07:29:32;;;;;;;;;;;20.90;46.90;;;;;;452564;263;1285;-52
2022/09/09 07:31:33;;;;;;;;;;;20.90;46.80;;;;;;452260;263;1346;-52
2022/09/09 07:33:35;;;;;;;;;;;20.90;46.80;;;;;;451984;263;2520;-50
2022/09/09 07:35:36;;;;;;;;;;;20.90;46.90;;;;;;452284;263;1317;-52
2022/09/09 07:37:38;;;;;;;;;;;20.90;46.80;;;;;;452189;263;1281;-51
2022/09/09 07:39:39;;;;;;;;;;;20.90;46.80;;;;;;452351;263;1356;-51
2022/09/09 07:41:40;;;;;;;;;;;20.90;46.70;;;;;;452254;263;1282;-51
2022/09/09 07:43:42;;;;;;;;;;;20.90;46.70;;;;;;452120;263;1387;-51
2022/09/09 07:45:43;;;;;;;;;;;20.90;46.70;;;;;;452273;262;1349;-52
2022/09/09 07:47:44;;;;;;;;;;;20.90;46.80;;;;;;452135;263;1244;-51
2022/09/09 07:49:46;;;;;;;;;;;20.90;46.70;;;;;;452110;263;1260;-50
2022/09/09 07:51:47;;;;;;;;;;;20.90;46.80;;;;;;451977;263;1257;-52
2022/09/09 07:53:49;;;;;;;;;;;20.90;46.70;;;;;;452201;263;2209;-51
2022/09/09 07:55:50;;;;;;;;;;;20.90;46.60;;;;;;452399;263;1297;-51
2022/09/09 07:57:51;;;;;;;;;;;20.90;46.60;;;;;;452193;262;1179;-51
2022/09/09 07:59:53;;;;;;;;;;;20.90;46.60;;;;;;452390;262;1202;-51
2022/09/09 08:01:54;;;;;;;;;;;20.90;46.50;;;;;;451920;263;1546;-51
2022/09/09 08:03:56;;;;;;;;;;;20.90;46.60;;;;;;452086;263;1222;-51
2022/09/09 08:05:57;;;;;;;;;;;20.90;46.70;;;;;;452065;263;1278;-52
2022/09/09 08:07:58;;;;;;;;;;;20.90;46.70;;;;;;451953;263;1199;-51
2022/09/09 08:10:00;;;;;;;;;;;20.90;46.60;;;;;;452407;263;1317;-50
2022/09/09 08:12:01;;;;;;;;;;;20.90;46.60;;;;;;452005;263;1275;-51
2022/09/09 08:14:02;;;;;;;;;;;20.90;46.60;;;;;;451938;263;2170;-51
2022/09/09 08:16:04;;;;;;;;;;;20.90;46.60;;;;;;451875;262;1341;-51
2022/09/09 08:18:05;;;;;;;;;;;20.90;46.50;;;;;;452141;263;1352;-51
2022/09/09 08:20:07;;;;;;;;;;;20.90;46.60;;;;;;452123;263;1309;-51
2022/09/09 08:22:08;;;;;;;;;;;20.90;46.50;;;;;;451948;263;1261;-51
2022/09/09 08:24:10;;;;;;;;;;;20.90;46.40;;;;;;451994;263;1213;-51
2022/09/09 08:26:11;;;;;;;;;;;20.90;46.40;;;;;;451979;263;1339;-51
2022/09/09 08:28:12;;;;;;;;;;;20.90;46.40;;;;;;452147;263;1328;-52
2022/09/09 08:30:13;;;;;;;;;;;20.90;46.50;;;;;;452236;263;1182;-51
2022/09/09 08:32:16;;;;;;;;;;;20.90;46.40;;;;;;451848;263;1264;-51
2022/09/09 08:34:17;;;;;;;;;;;20.90;46.50;;;;;;452132;262;2383;-52
2022/09/09 08:36:17;;;;;;;;;;;20.90;46.50;;;;;;451858;263;1431;-52
2022/09/09 08:38:19;;;;;;;;;;;20.90;46.50;;;;;;452138;263;1103;-52
2022/09/09 08:40:20;;;;;;;;;;;20.90;46.50;;;;;;452299;262;1221;-51
2022/09/09 08:42:21;;;;;;;;;;;20.90;46.70;;;;;;451958;262;1280;-51
2022/09/09 08:44:23;;;;;;;;;;;20.90;46.80;;;;;;452063;263;1135;-52
2022/09/09 08:46:24;;;;;;;;;;;20.90;46.80;;;;;;451825;263;1651;-51
2022/09/09 08:48:26;;;;;;;;;;;20.90;46.80;;;;;;452050;262;1293;-51
2022/09/09 08:50:27;;;;;;;;;;;20.90;46.80;;;;;;451803;263;1332;-51
2022/09/09 08:52:28;;;;;;;;;;;20.90;46.70;;;;;;452237;263;1296;-52
2022/09/09 08:54:30;;;;;;;;;;;20.90;46.90;;;;;;452211;263;2158;-52
2022/09/09 08:56:31;;;;;;;;;;;20.90;46.90;;;;;;452128;262;1348;-52
2022/09/09 08:58:32;;;;;;;;;;;20.90;46.80;;;;;;451959;262;1568;-51
2022/09/09 09:00:34;;;;;;;;;;;20.90;46.70;;;;;;452101;262;1194;-51
2022/09/09 09:02:36;;;;;;;;;;;20.90;46.80;;;;;;451936;263;1339;-51
2022/09/09 09:04:36;;;;;;;;;;;20.90;46.70;;;;;;452054;263;1999;-52
2022/09/09 09:06:38;;;;;;;;;;;20.90;46.80;;;;;;452172;263;1240;-51
2022/09/09 09:08:40;;;;;;;;;;;20.90;46.70;;;;;;452221;263;1624;-51
2022/09/09 09:10:40;;;;;;;;;;;20.90;46.70;;;;;;451820;263;1302;-51
2022/09/09 09:12:42;;;;;;;;;;;20.90;46.60;;;;;;451995;263;1199;-51
2022/09/09 09:14:43;;;;;;;;;;;20.90;46.50;;;;;;452059;263;2286;-52
2022/09/09 09:16:44;;;;;;;;;;;20.90;46.70;;;;;;452066;263;1349;-51
2022/09/09 09:18:46;;;;;;;;;;;20.90;46.70;;;;;;452131;263;1254;-51
2022/09/09 09:20:47;;;;;;;;;;;20.90;46.70;;;;;;452039;263;1512;-52
2022/09/09 09:22:48;;;;;;;;;;;20.90;46.70;;;;;;452036;263;1656;-52
2022/09/09 09:24:50;;;;;;;;;;;20.90;46.50;;;;;;452040;263;1249;-51
2022/09/09 09:26:52;;;;;;;;;;;20.90;46.60;;;;;;452169;263;1225;-51
2022/09/09 09:28:52;;;;;;;;;;;20.90;46.60;;;;;;452051;262;2288;-51
2022/09/09 09:30:53;;;;;;;;;;;20.90;46.60;;;;;;452205;263;1191;-51
2022/09/09 09:32:55;;;;;;;;;;;20.90;46.60;;;;;;452179;263;1179;-52
2022/09/09 09:34:56;;;;;;;;;;;20.90;46.50;;;;;;452264;263;2189;-51
2022/09/09 09:36:57;;;;;;;;;;;20.90;46.50;;;;;;452387;262;1117;-52
2022/09/09 09:38:59;;;;;;;;;;;20.90;46.60;;;;;;452311;262;1231;-51
2022/09/09 09:41:00;;;;;;;;;;;20.90;46.60;;;;;;452285;263;2399;-52
2022/09/09 09:43:01;;;;;;;;;;;20.90;46.50;;;;;;452329;263;1181;-51
2022/09/09 09:45:03;;;;;;;;;;;20.90;46.80;;;;;;452182;263;1102;-51
2022/09/09 09:47:04;;;;;;;;;;;20.90;46.60;;;;;;452527;263;1270;-51
2022/09/09 09:49:05;;;;;;;;;;;20.90;46.50;;;;;;452258;263;1140;-52
2022/09/09 09:51:07;;;;;;;;;;;20.90;46.50;;;;;;451915;263;1230;-51
2022/09/09 09:53:08;;;;;;;;;;;20.90;46.70;;;;;;452333;263;1313;-52
2022/09/09 09:55:09;;;;;;;;;;;20.90;46.60;;;;;;452324;262;2225;-52
2022/09/09 09:57:11;;;;;;;;;;;21.00;46.50;;;;;;452326;263;1265;-51
2022/09/09 09:59:12;;;;;;;;;;;20.90;46.50;;;;;;452360;263;1196;-51
2022/09/09 10:01:13;;;;;;;;;;;20.90;46.60;;;;;;451277;263;1251;-51
2022/09/09 10:03:15;;;;;;;;;;;20.90;46.60;;;;;;451536;263;1362;-51
2022/09/09 10:05:16;;;;;;;;;;;20.90;46.50;;;;;;451364;263;1278;-51
2022/09/09 10:07:17;;;;;;;;;;;20.90;46.60;;;;;;451811;263;1477;-51
2022/09/09 10:09:19;;;;;;;;;;;20.90;46.60;;;;;;452126;263;1477;-52
2022/09/09 10:11:21;;;;;;;;;;;20.90;46.80;;;;;;451991;263;1387;-51
2022/09/09 10:13:23;;;;;;;;;;;20.90;46.60;;;;;;452506;263;1402;-51
2022/09/09 10:15:23;;;;;;;;;;;20.90;46.70;;;;;;451914;263;2280;-52
2022/09/09 10:17:27;;;;;;;;;;;20.90;46.80;;;;;;452318;262;1232;-52
2022/09/09 10:19:26;;;;;;;;;;;20.90;46.90;;;;;;452498;263;2267;-52
2022/09/09 10:21:27;;;;;;;;;;;20.90;47.00;;;;;;452439;263;1186;-52
2022/09/09 10:23:28;;;;;;;;;;;20.90;46.90;;;;;;452782;263;1243;-51
2022/09/09 10:25:30;;;;;;;;;;;20.90;46.90;;;;;;452269;263;1273;-52
2022/09/09 10:27:31;;;;;;;;;;;20.90;47.00;;;;;;452017;263;1220;-51
2022/09/09 10:29:32;;;;;;;;;;;20.90;46.90;;;;;;452386;262;1208;-52
2022/09/09 10:31:34;;;;;;;;;;;20.90;46.90;;;;;;452085;263;1234;-51
2022/09/09 10:33:35;;;;;;;;;;;20.90;46.90;;;;;;452305;262;1213;-51
2022/09/09 10:35:36;;;;;;;;;;;20.90;46.90;;;;;;452191;263;2182;-51
2022/09/09 10:37:38;;;;;;;;;;;20.90;47.00;;;;;;452195;262;1311;-51
2022/09/09 10:39:40;;;;;;;;;;;20.90;46.90;;;;;;452193;263;1191;-51
2022/09/09 10:41:41;;;;;;;;;;;20.90;46.90;;;;;;451996;263;1453;-51
2022/09/09 10:43:42;;;;;;;;;;;20.90;46.90;;;;;;452235;263;1249;-51
2022/09/09 10:45:44;;;;;;;;;;;20.90;46.80;;;;;;452063;263;1329;-52
2022/09/09 10:47:46;;;;;;;;;;;20.90;46.90;;;;;;452055;263;1219;-51
2022/09/09 10:49:46;;;;;;;;;;;20.90;46.90;;;;;;452042;263;2323;-51
2022/09/09 10:51:49;;;;;;;;;;;20.90;46.90;;;;;;452496;262;1139;-51
2022/09/09 10:53:49;;;;;;;;;;;20.90;46.90;;;;;;452204;263;2672;-51
2022/09/09 10:55:50;;;;;;;;;;;20.90;47.00;;;;;;452163;263;2194;-51
2022/09/09 10:57:52;;;;;;;;;;;20.90;46.70;;;;;;452329;263;1216;-51
2022/09/09 10:59:56;;;;;;;;;;;20.90;46.80;;;;;;452295;263;1258;-51
2022/09/09 11:01:55;;;;;;;;;;;20.90;46.90;;;;;;452244;263;2434;-51
2022/09/09 11:03:56;;;;;;;;;;;20.90;46.80;;;;;;452140;263;1223;-51
2022/09/09 11:05:57;;;;;;;;;;;20.90;46.70;;;;;;452062;263;1396;-51
2022/09/09 11:07:59;;;;;;;;;;;20.90;46.80;;;;;;452343;263;1325;-51
2022/09/09 11:10:00;;;;;;;;;;;20.90;46.80;;;;;;452213;262;1236;-51
2022/09/09 11:12:02;;;;;;;;;;;20.90;46.90;;;;;;452148;263;1340;-51
2022/09/09 11:14:03;;;;;;;;;;;20.90;46.80;;;;;;452103;263;1306;-52
2022/09/09 11:16:04;;;;;;;;;;;20.90;46.90;;;;;;452221;263;2174;-52
2022/09/09 11:18:06;;;;;;;;;;;20.90;46.80;;;;;;451831;263;1355;-51
2022/09/09 11:20:07;;;;;;;;;;;20.90;46.70;;;;;;452253;262;1246;-51
2022/09/09 11:22:09;;;;;;;;;;;20.90;46.80;;;;;;452184;263;1286;-51
2022/09/09 11:24:10;;;;;;;;;;;20.90;46.90;;;;;;452048;263;1577;-52
2022/09/09 11:26:11;;;;;;;;;;;20.90;46.80;;;;;;452245;263;1438;-51
2022/09/09 11:28:14;;;;;;;;;;;20.90;46.80;;;;;;452230;263;1295;-51
2022/09/09 11:30:14;;;;;;;;;;;20.90;46.80;;;;;;452273;262;2197;-51
2022/09/09 11:32:15;;;;;;;;;;;20.90;46.70;;;;;;452174;263;1320;-52
2022/09/09 11:34:18;;;;;;;;;;;21.00;46.70;;;;;;452257;263;1228;-51
2022/09/09 11:36:19;;;;;;;;;;;20.90;46.90;;;;;;452199;263;2180;-51
2022/09/09 11:38:19;;;;;;;;;;;21.00;46.80;;;;;;452016;263;2210;-52
2022/09/09 11:40:21;;;;;;;;;;;20.90;46.70;;;;;;452495;263;1337;-52
2022/09/09 11:42:22;;;;;;;;;;;20.90;46.80;;;;;;452406;263;1553;-51
2022/09/09 11:44:23;;;;;;;;;;;20.90;46.80;;;;;;451888;263;1224;-51
2022/09/09 11:46:24;;;;;;;;;;;20.90;46.80;;;;;;451996;263;1369;-52
2022/09/09 11:48:26;;;;;;;;;;;20.90;47.00;;;;;;452536;262;1217;-51
2022/09/09 11:50:27;;;;;;;;;;;20.90;46.80;;;;;;452410;263;1217;-51
2022/09/09 11:52:28;;;;;;;;;;;20.90;46.80;;;;;;452544;263;1323;-52
2022/09/09 11:54:30;;;;;;;;;;;20.90;46.80;;;;;;452137;263;1179;-52
2022/09/09 11:56:31;;;;;;;;;;;20.90;46.80;;;;;;451681;263;2185;-51